sensor_id;sensor_type;location;lat;lon;timestamp;P1;durP1;ratioP1;P2;durP2;ratioP2
29728;SDS011;20055;51.498;11.960;2023-08-24T00:01:29;24.75;;;4.80;;
29728;SDS011;20055;51.498;11.960;2023-08-24T00:03:56;11.02;;;4.38;;
29728;SDS011;20055;51.498;11.960;2023-08-24T00:06:22;9.43;;;5.32;;
29728;SDS011;20055;51.498;11.960;2023-08-24T00:08:49;11.70;;;4.00;;
29728;SDS011;20055;51.498;11.960;2023-08-24T00:11:15;16.20;;;4.90;;
29728;SDS011;20055;51.498;11.960;2023-08-24T00:13:42;25.40;;;5.28;;
29728;SDS011;20055;51.498;11.960;2023-08-24T00:16:20;11.45;;;4.32;;
29728;SDS011;20055;51.498;11.960;2023-08-24T00:18:47;22.92;;;5.00;;
29728;SDS011;20055;51.498;11.960;2023-08-24T00:21:14;17.90;;;4.25;;
29728;SDS011;20055;51.498;11.960;2023-08-24T00:23:48;13.48;;;5.32;;
29728;SDS011;20055;51.498;11.960;2023-08-24T00:28:45;18.35;;;5.18;;
29728;SDS011;20055;51.498;11.960;2023-08-24T00:31:12;12.93;;;5.45;;
29728;SDS011;20055;51.498;11.960;2023-08-24T00:33:40;24.58;;;5.07;;
29728;SDS011;20055;51.498;11.960;2023-08-24T00:36:10;20.43;;;5.13;;
29728;SDS011;20055;51.498;11.960;2023-08-24T00:38:39;21.05;;;4.85;;
29728;SDS011;20055;51.498;11.960;2023-08-24T00:41:05;8.52;;;4.15;;
29728;SDS011;20055;51.498;11.960;2023-08-24T00:43:32;15.38;;;4.93;;
29728;SDS011;20055;51.498;11.960;2023-08-24T00:45:59;12.38;;;4.57;;
29728;SDS011;20055;51.498;11.960;2023-08-24T00:48:26;9.25;;;3.97;;
29728;SDS011;20055;51.498;11.960;2023-08-24T00:50:59;9.30;;;4.10;;
29728;SDS011;20055;51.498;11.960;2023-08-24T00:53:27;16.30;;;3.95;;
29728;SDS011;20055;51.498;11.960;2023-08-24T00:55:55;11.05;;;4.70;;
29728;SDS011;20055;51.498;11.960;2023-08-24T00:58:21;8.77;;;4.07;;
29728;SDS011;20055;51.498;11.960;2023-08-24T01:00:49;12.43;;;4.88;;
29728;SDS011;20055;51.498;11.960;2023-08-24T01:03:16;10.30;;;4.43;;
29728;SDS011;20055;51.498;11.960;2023-08-24T01:05:43;13.18;;;4.80;;
29728;SDS011;20055;51.498;11.960;2023-08-24T01:08:11;16.17;;;4.40;;
29728;SDS011;20055;51.498;11.960;2023-08-24T01:10:40;9.05;;;4.32;;
29728;SDS011;20055;51.498;11.960;2023-08-24T01:13:34;11.00;;;4.60;;
29728;SDS011;20055;51.498;11.960;2023-08-24T01:16:16;17.55;;;4.60;;
29728;SDS011;20055;51.498;11.960;2023-08-24T01:18:47;9.77;;;5.40;;
29728;SDS011;20055;51.498;11.960;2023-08-24T01:21:16;14.63;;;4.82;;
29728;SDS011;20055;51.498;11.960;2023-08-24T01:23:45;13.57;;;5.20;;
29728;SDS011;20055;51.498;11.960;2023-08-24T01:26:17;11.30;;;4.95;;
29728;SDS011;20055;51.498;11.960;2023-08-24T01:28:45;11.25;;;5.25;;
29728;SDS011;20055;51.498;11.960;2023-08-24T01:31:15;15.32;;;5.68;;
29728;SDS011;20055;51.498;11.960;2023-08-24T01:33:43;14.43;;;5.22;;
29728;SDS011;20055;51.498;11.960;2023-08-24T01:36:10;15.63;;;4.97;;
29728;SDS011;20055;51.498;11.960;2023-08-24T01:38:38;9.93;;;4.57;;
29728;SDS011;20055;51.498;11.960;2023-08-24T01:41:09;14.43;;;4.55;;
29728;SDS011;20055;51.498;11.960;2023-08-24T01:43:39;15.85;;;5.28;;
29728;SDS011;20055;51.498;11.960;2023-08-24T01:46:08;13.30;;;5.28;;
29728;SDS011;20055;51.498;11.960;2023-08-24T01:48:36;10.00;;;4.97;;
29728;SDS011;20055;51.498;11.960;2023-08-24T01:51:04;8.95;;;5.13;;
29728;SDS011;20055;51.498;11.960;2023-08-24T01:53:32;9.07;;;4.43;;
29728;SDS011;20055;51.498;11.960;2023-08-24T01:55:59;13.55;;;4.40;;
29728;SDS011;20055;51.498;11.960;2023-08-24T01:58:25;11.90;;;4.95;;
29728;SDS011;20055;51.498;11.960;2023-08-24T02:00:51;10.10;;;5.13;;
29728;SDS011;20055;51.498;11.960;2023-08-24T02:03:17;8.20;;;4.53;;
29728;SDS011;20055;51.498;11.960;2023-08-24T02:05:44;15.15;;;5.15;;
29728;SDS011;20055;51.498;11.960;2023-08-24T02:08:10;12.73;;;5.97;;
29728;SDS011;20055;51.498;11.960;2023-08-24T02:10:36;15.55;;;5.28;;
29728;SDS011;20055;51.498;11.960;2023-08-24T02:13:03;17.05;;;6.05;;
29728;SDS011;20055;51.498;11.960;2023-08-24T02:15:29;13.93;;;5.05;;
29728;SDS011;20055;51.498;11.960;2023-08-24T02:17:56;11.18;;;4.80;;
29728;SDS011;20055;51.498;11.960;2023-08-24T02:20:22;10.02;;;5.10;;
29728;SDS011;20055;51.498;11.960;2023-08-24T02:22:48;11.10;;;4.80;;
29728;SDS011;20055;51.498;11.960;2023-08-24T02:25:14;16.40;;;5.63;;
29728;SDS011;20055;51.498;11.960;2023-08-24T02:27:41;6.90;;;4.78;;
29728;SDS011;20055;51.498;11.960;2023-08-24T02:30:07;11.40;;;5.38;;
29728;SDS011;20055;51.498;11.960;2023-08-24T02:32:34;14.77;;;5.93;;
29728;SDS011;20055;51.498;11.960;2023-08-24T02:35:00;12.82;;;6.00;;
29728;SDS011;20055;51.498;11.960;2023-08-24T02:37:27;13.68;;;5.38;;
29728;SDS011;20055;51.498;11.960;2023-08-24T02:39:54;11.23;;;5.25;;
29728;SDS011;20055;51.498;11.960;2023-08-24T02:42:21;12.77;;;5.00;;
29728;SDS011;20055;51.498;11.960;2023-08-24T02:44:47;19.60;;;4.85;;
29728;SDS011;20055;51.498;11.960;2023-08-24T02:47:13;8.90;;;5.10;;
29728;SDS011;20055;51.498;11.960;2023-08-24T02:49:40;13.68;;;4.70;;
29728;SDS011;20055;51.498;11.960;2023-08-24T02:52:07;8.48;;;4.25;;
29728;SDS011;20055;51.498;11.960;2023-08-24T02:54:33;7.20;;;4.60;;
29728;SDS011;20055;51.498;11.960;2023-08-24T02:57:00;8.32;;;4.88;;
29728;SDS011;20055;51.498;11.960;2023-08-24T02:59:26;19.05;;;5.03;;
29728;SDS011;20055;51.498;11.960;2023-08-24T03:01:52;11.07;;;5.40;;
29728;SDS011;20055;51.498;11.960;2023-08-24T03:04:19;11.35;;;5.30;;
29728;SDS011;20055;51.498;11.960;2023-08-24T03:06:45;8.77;;;5.47;;
29728;SDS011;20055;51.498;11.960;2023-08-24T03:09:11;11.55;;;5.53;;
29728;SDS011;20055;51.498;11.960;2023-08-24T03:11:38;10.05;;;5.35;;
29728;SDS011;20055;51.498;11.960;2023-08-24T03:14:04;9.95;;;5.10;;
29728;SDS011;20055;51.498;11.960;2023-08-24T03:16:30;13.95;;;6.32;;
29728;SDS011;20055;51.498;11.960;2023-08-24T03:18:57;13.38;;;6.45;;
29728;SDS011;20055;51.498;11.960;2023-08-24T03:21:24;12.52;;;5.70;;
29728;SDS011;20055;51.498;11.960;2023-08-24T03:23:50;14.07;;;6.00;;
29728;SDS011;20055;51.498;11.960;2023-08-24T03:26:19;11.10;;;5.93;;
29728;SDS011;20055;51.498;11.960;2023-08-24T03:28:46;12.73;;;5.70;;
29728;SDS011;20055;51.498;11.960;2023-08-24T03:31:13;9.80;;;5.68;;
29728;SDS011;20055;51.498;11.960;2023-08-24T03:33:39;13.40;;;5.68;;
29728;SDS011;20055;51.498;11.960;2023-08-24T03:36:06;11.68;;;5.30;;
29728;SDS011;20055;51.498;11.960;2023-08-24T03:38:32;8.68;;;5.28;;
29728;SDS011;20055;51.498;11.960;2023-08-24T03:40:59;11.75;;;5.65;;
29728;SDS011;20055;51.498;11.960;2023-08-24T03:43:32;13.18;;;4.72;;
29728;SDS011;20055;51.498;11.960;2023-08-24T03:46:00;13.63;;;5.47;;
29728;SDS011;20055;51.498;11.960;2023-08-24T03:48:27;11.90;;;5.30;;
29728;SDS011;20055;51.498;11.960;2023-08-24T03:50:54;12.88;;;6.00;;
29728;SDS011;20055;51.498;11.960;2023-08-24T03:53:22;14.07;;;6.65;;
29728;SDS011;20055;51.498;11.960;2023-08-24T03:55:49;12.68;;;6.05;;
29728;SDS011;20055;51.498;11.960;2023-08-24T03:58:21;13.63;;;5.82;;
29728;SDS011;20055;51.498;11.960;2023-08-24T04:00:48;14.45;;;6.43;;
29728;SDS011;20055;51.498;11.960;2023-08-24T04:03:14;12.82;;;6.35;;
29728;SDS011;20055;51.498;11.960;2023-08-24T04:05:40;12.57;;;6.45;;
29728;SDS011;20055;51.498;11.960;2023-08-24T04:08:07;12.82;;;6.68;;
29728;SDS011;20055;51.498;11.960;2023-08-24T04:10:33;9.25;;;7.20;;
29728;SDS011;20055;51.498;11.960;2023-08-24T04:13:00;17.30;;;7.47;;
29728;SDS011;20055;51.498;11.960;2023-08-24T04:15:27;16.65;;;8.18;;
29728;SDS011;20055;51.498;11.960;2023-08-24T04:17:53;16.52;;;8.02;;
29728;SDS011;20055;51.498;11.960;2023-08-24T04:20:20;16.20;;;8.25;;
29728;SDS011;20055;51.498;11.960;2023-08-24T04:22:46;15.40;;;8.68;;
29728;SDS011;20055;51.498;11.960;2023-08-24T04:25:13;16.45;;;8.45;;
29728;SDS011;20055;51.498;11.960;2023-08-24T04:27:39;11.38;;;7.40;;
29728;SDS011;20055;51.498;11.960;2023-08-24T04:30:06;23.23;;;8.27;;
29728;SDS011;20055;51.498;11.960;2023-08-24T04:32:37;21.33;;;8.30;;
29728;SDS011;20055;51.498;11.960;2023-08-24T04:35:03;11.77;;;7.03;;
29728;SDS011;20055;51.498;11.960;2023-08-24T04:37:30;14.73;;;7.63;;
29728;SDS011;20055;51.498;11.960;2023-08-24T04:39:56;14.82;;;8.40;;
29728;SDS011;20055;51.498;11.960;2023-08-24T04:42:22;18.58;;;7.07;;
29728;SDS011;20055;51.498;11.960;2023-08-24T04:44:50;11.52;;;6.30;;
29728;SDS011;20055;51.498;11.960;2023-08-24T04:47:16;10.85;;;6.13;;
29728;SDS011;20055;51.498;11.960;2023-08-24T04:49:43;12.20;;;5.55;;
29728;SDS011;20055;51.498;11.960;2023-08-24T04:52:09;12.77;;;5.68;;
29728;SDS011;20055;51.498;11.960;2023-08-24T04:54:35;13.45;;;6.15;;
29728;SDS011;20055;51.498;11.960;2023-08-24T04:57:01;12.73;;;5.93;;
29728;SDS011;20055;51.498;11.960;2023-08-24T04:59:28;11.65;;;5.72;;
29728;SDS011;20055;51.498;11.960;2023-08-24T05:01:54;13.77;;;5.32;;
29728;SDS011;20055;51.498;11.960;2023-08-24T05:04:20;15.25;;;5.72;;
29728;SDS011;20055;51.498;11.960;2023-08-24T05:06:46;13.05;;;6.10;;
29728;SDS011;20055;51.498;11.960;2023-08-24T05:09:13;11.27;;;5.82;;
29728;SDS011;20055;51.498;11.960;2023-08-24T05:11:39;12.20;;;6.50;;
29728;SDS011;20055;51.498;11.960;2023-08-24T05:14:05;16.55;;;6.38;;
29728;SDS011;20055;51.498;11.960;2023-08-24T05:16:32;14.05;;;6.88;;
29728;SDS011;20055;51.498;11.960;2023-08-24T05:18:58;15.45;;;6.82;;
29728;SDS011;20055;51.498;11.960;2023-08-24T05:21:24;15.35;;;6.60;;
29728;SDS011;20055;51.498;11.960;2023-08-24T05:23:51;18.30;;;6.65;;
29728;SDS011;20055;51.498;11.960;2023-08-24T05:26:17;10.02;;;6.78;;
29728;SDS011;20055;51.498;11.960;2023-08-24T05:28:48;14.48;;;6.72;;
29728;SDS011;20055;51.498;11.960;2023-08-24T05:31:14;18.63;;;7.47;;
29728;SDS011;20055;51.498;11.960;2023-08-24T05:33:41;10.30;;;6.45;;
29728;SDS011;20055;51.498;11.960;2023-08-24T05:36:07;8.18;;;5.80;;
29728;SDS011;20055;51.498;11.960;2023-08-24T05:38:33;14.88;;;6.75;;
29728;SDS011;20055;51.498;11.960;2023-08-24T05:40:59;13.85;;;5.57;;
29728;SDS011;20055;51.498;11.960;2023-08-24T05:43:26;12.35;;;6.28;;
29728;SDS011;20055;51.498;11.960;2023-08-24T05:45:52;9.95;;;5.65;;
29728;SDS011;20055;51.498;11.960;2023-08-24T05:48:18;13.07;;;5.50;;
29728;SDS011;20055;51.498;11.960;2023-08-24T05:50:47;13.75;;;6.15;;
29728;SDS011;20055;51.498;11.960;2023-08-24T05:53:13;8.63;;;5.38;;
29728;SDS011;20055;51.498;11.960;2023-08-24T05:55:40;14.63;;;6.03;;
29728;SDS011;20055;51.498;11.960;2023-08-24T05:58:07;13.63;;;6.25;;
29728;SDS011;20055;51.498;11.960;2023-08-24T06:00:33;15.32;;;5.70;;
29728;SDS011;20055;51.498;11.960;2023-08-24T06:03:00;19.75;;;5.60;;
29728;SDS011;20055;51.498;11.960;2023-08-24T06:05:27;18.08;;;6.05;;
29728;SDS011;20055;51.498;11.960;2023-08-24T06:07:55;14.07;;;6.57;;
29728;SDS011;20055;51.498;11.960;2023-08-24T06:10:21;15.48;;;5.75;;
29728;SDS011;20055;51.498;11.960;2023-08-24T06:12:47;11.70;;;5.90;;
29728;SDS011;20055;51.498;11.960;2023-08-24T06:15:13;11.60;;;5.35;;
29728;SDS011;20055;51.498;11.960;2023-08-24T06:17:40;18.33;;;5.70;;
29728;SDS011;20055;51.498;11.960;2023-08-24T06:20:07;10.60;;;4.93;;
29728;SDS011;20055;51.498;11.960;2023-08-24T06:22:36;10.50;;;5.10;;
29728;SDS011;20055;51.498;11.960;2023-08-24T06:25:02;11.30;;;5.00;;
29728;SDS011;20055;51.498;11.960;2023-08-24T06:27:30;12.20;;;5.40;;
29728;SDS011;20055;51.498;11.960;2023-08-24T06:29:57;7.55;;;4.97;;
29728;SDS011;20055;51.498;11.960;2023-08-24T06:32:23;14.27;;;5.60;;
29728;SDS011;20055;51.498;11.960;2023-08-24T06:34:49;10.00;;;6.00;;
29728;SDS011;20055;51.498;11.960;2023-08-24T06:37:15;14.93;;;4.75;;
29728;SDS011;20055;51.498;11.960;2023-08-24T06:39:41;8.20;;;4.65;;
29728;SDS011;20055;51.498;11.960;2023-08-24T06:42:08;7.45;;;3.70;;
29728;SDS011;20055;51.498;11.960;2023-08-24T06:44:34;9.23;;;4.35;;
29728;SDS011;20055;51.498;11.960;2023-08-24T06:47:00;13.32;;;4.18;;
29728;SDS011;20055;51.498;11.960;2023-08-24T06:49:26;9.50;;;4.32;;
29728;SDS011;20055;51.498;11.960;2023-08-24T06:51:53;9.35;;;4.38;;
29728;SDS011;20055;51.498;11.960;2023-08-24T06:54:19;8.77;;;4.28;;
29728;SDS011;20055;51.498;11.960;2023-08-24T06:56:45;13.40;;;4.55;;
29728;SDS011;20055;51.498;11.960;2023-08-24T06:59:11;19.90;;;4.63;;
29728;SDS011;20055;51.498;11.960;2023-08-24T07:01:39;13.38;;;4.97;;
29728;SDS011;20055;51.498;11.960;2023-08-24T07:04:08;8.70;;;4.22;;
29728;SDS011;20055;51.498;11.960;2023-08-24T07:06:35;11.50;;;4.50;;
29728;SDS011;20055;51.498;11.960;2023-08-24T07:09:01;10.48;;;4.63;;
29728;SDS011;20055;51.498;11.960;2023-08-24T07:11:32;13.07;;;5.03;;
29728;SDS011;20055;51.498;11.960;2023-08-24T07:13:58;10.80;;;4.47;;
29728;SDS011;20055;51.498;11.960;2023-08-24T07:16:24;9.23;;;4.22;;
29728;SDS011;20055;51.498;11.960;2023-08-24T07:18:51;8.40;;;4.57;;
29728;SDS011;20055;51.498;11.960;2023-08-24T07:21:17;14.13;;;4.90;;
29728;SDS011;20055;51.498;11.960;2023-08-24T07:23:43;12.10;;;4.10;;
29728;SDS011;20055;51.498;11.960;2023-08-24T07:26:10;10.18;;;3.83;;
29728;SDS011;20055;51.498;11.960;2023-08-24T07:28:36;10.98;;;3.70;;
29728;SDS011;20055;51.498;11.960;2023-08-24T07:31:09;13.85;;;3.90;;
29728;SDS011;20055;51.498;11.960;2023-08-24T07:33:37;16.90;;;3.92;;
29728;SDS011;20055;51.498;11.960;2023-08-24T07:36:06;11.40;;;3.67;;
29728;SDS011;20055;51.498;11.960;2023-08-24T07:38:32;8.25;;;3.92;;
29728;SDS011;20055;51.498;11.960;2023-08-24T07:40:58;7.80;;;2.88;;
29728;SDS011;20055;51.498;11.960;2023-08-24T07:43:25;17.20;;;4.10;;
29728;SDS011;20055;51.498;11.960;2023-08-24T07:45:51;12.00;;;3.67;;
29728;SDS011;20055;51.498;11.960;2023-08-24T07:48:18;8.85;;;3.45;;
29728;SDS011;20055;51.498;11.960;2023-08-24T07:50:44;7.28;;;3.47;;
29728;SDS011;20055;51.498;11.960;2023-08-24T07:53:10;7.80;;;3.40;;
29728;SDS011;20055;51.498;11.960;2023-08-24T07:55:36;8.20;;;2.97;;
29728;SDS011;20055;51.498;11.960;2023-08-24T07:58:03;12.95;;;3.05;;
29728;SDS011;20055;51.498;11.960;2023-08-24T08:00:29;5.63;;;2.55;;
29728;SDS011;20055;51.498;11.960;2023-08-24T08:02:56;7.10;;;2.50;;
29728;SDS011;20055;51.498;11.960;2023-08-24T08:05:23;7.43;;;2.70;;
29728;SDS011;20055;51.498;11.960;2023-08-24T08:07:50;9.43;;;3.30;;
29728;SDS011;20055;51.498;11.960;2023-08-24T08:10:16;42.88;;;5.18;;
29728;SDS011;20055;51.498;11.960;2023-08-24T08:12:43;14.57;;;3.20;;
29728;SDS011;20055;51.498;11.960;2023-08-24T08:15:09;6.55;;;3.28;;
29728;SDS011;20055;51.498;11.960;2023-08-24T08:17:35;9.38;;;2.58;;
29728;SDS011;20055;51.498;11.960;2023-08-24T08:20:01;11.70;;;3.20;;
29728;SDS011;20055;51.498;11.960;2023-08-24T08:22:28;17.58;;;3.20;;
29728;SDS011;20055;51.498;11.960;2023-08-24T08:24:54;5.28;;;2.38;;
29728;SDS011;20055;51.498;11.960;2023-08-24T08:27:22;12.25;;;2.60;;
29728;SDS011;20055;51.498;11.960;2023-08-24T08:29:49;13.15;;;3.35;;
29728;SDS011;20055;51.498;11.960;2023-08-24T08:32:16;10.55;;;3.30;;
29728;SDS011;20055;51.498;11.960;2023-08-24T08:34:42;5.63;;;2.67;;
29728;SDS011;20055;51.498;11.960;2023-08-24T08:37:09;40.75;;;5.15;;
29728;SDS011;20055;51.498;11.960;2023-08-24T08:39:35;29.30;;;5.63;;
29728;SDS011;20055;51.498;11.960;2023-08-24T08:42:02;14.23;;;4.45;;
29728;SDS011;20055;51.498;11.960;2023-08-24T08:44:31;33.88;;;5.10;;
29728;SDS011;20055;51.498;11.960;2023-08-24T08:49:25;44.50;;;6.68;;
29728;SDS011;20055;51.498;11.960;2023-08-24T08:51:51;22.95;;;3.63;;
29728;SDS011;20055;51.498;11.960;2023-08-24T08:54:18;10.20;;;3.38;;
29728;SDS011;20055;51.498;11.960;2023-08-24T08:56:44;20.60;;;4.45;;
29728;SDS011;20055;51.498;11.960;2023-08-24T08:59:11;19.60;;;5.28;;
29728;SDS011;20055;51.498;11.960;2023-08-24T09:01:39;11.85;;;4.28;;
29728;SDS011;20055;51.498;11.960;2023-08-24T09:04:06;11.13;;;3.50;;
29728;SDS011;20055;51.498;11.960;2023-08-24T09:06:33;16.05;;;4.72;;
29728;SDS011;20055;51.498;11.960;2023-08-24T09:09:00;11.18;;;5.55;;
29728;SDS011;20055;51.498;11.960;2023-08-24T09:11:27;8.45;;;4.22;;
29728;SDS011;20055;51.498;11.960;2023-08-24T09:13:53;6.53;;;3.63;;
29728;SDS011;20055;51.498;11.960;2023-08-24T09:16:20;14.10;;;4.95;;
29728;SDS011;20055;51.498;11.960;2023-08-24T09:18:46;20.05;;;4.53;;
29728;SDS011;20055;51.498;11.960;2023-08-24T09:21:14;8.68;;;2.88;;
29728;SDS011;20055;51.498;11.960;2023-08-24T09:23:44;15.93;;;3.40;;
29728;SDS011;20055;51.498;11.960;2023-08-24T09:26:27;7.18;;;2.97;;
29728;SDS011;20055;51.498;11.960;2023-08-24T09:28:57;11.23;;;3.20;;
29728;SDS011;20055;51.498;11.960;2023-08-24T09:31:36;8.10;;;3.08;;
29728;SDS011;20055;51.498;11.960;2023-08-24T09:34:04;7.28;;;3.20;;
29728;SDS011;20055;51.498;11.960;2023-08-24T09:36:32;13.27;;;3.13;;
29728;SDS011;20055;51.498;11.960;2023-08-24T09:39:02;6.85;;;2.90;;
29728;SDS011;20055;51.498;11.960;2023-08-24T09:41:43;9.20;;;3.05;;
29728;SDS011;20055;51.498;11.960;2023-08-24T09:44:10;16.08;;;3.40;;
29728;SDS011;20055;51.498;11.960;2023-08-24T09:46:40;16.20;;;3.17;;
29728;SDS011;20055;51.498;11.960;2023-08-24T09:49:06;8.25;;;2.88;;
29728;SDS011;20055;51.498;11.960;2023-08-24T09:51:34;5.75;;;2.78;;
29728;SDS011;20055;51.498;11.960;2023-08-24T09:54:03;15.57;;;4.00;;
29728;SDS011;20055;51.498;11.960;2023-08-24T09:56:33;12.23;;;3.20;;
29728;SDS011;20055;51.498;11.960;2023-08-24T09:59:12;9.13;;;2.65;;
29728;SDS011;20055;51.498;11.960;2023-08-24T10:01:41;4.85;;;2.88;;
29728;SDS011;20055;51.498;11.960;2023-08-24T10:04:09;10.48;;;2.72;;
29728;SDS011;20055;51.498;11.960;2023-08-24T10:06:38;6.95;;;2.78;;
29728;SDS011;20055;51.498;11.960;2023-08-24T10:09:07;13.85;;;3.25;;
29728;SDS011;20055;51.498;11.960;2023-08-24T10:14:29;7.00;;;2.95;;
29728;SDS011;20055;51.498;11.960;2023-08-24T10:17:00;7.00;;;3.08;;
29728;SDS011;20055;51.498;11.960;2023-08-24T10:19:26;13.38;;;3.47;;
29728;SDS011;20055;51.498;11.960;2023-08-24T10:21:53;11.18;;;4.38;;
29728;SDS011;20055;51.498;11.960;2023-08-24T10:24:23;8.83;;;3.17;;
29728;SDS011;20055;51.498;11.960;2023-08-24T10:26:49;9.32;;;3.22;;
29728;SDS011;20055;51.498;11.960;2023-08-24T10:29:16;10.25;;;3.20;;
29728;SDS011;20055;51.498;11.960;2023-08-24T10:31:43;19.67;;;12.43;;
29728;SDS011;20055;51.498;11.960;2023-08-24T10:34:09;19.45;;;4.78;;
29728;SDS011;20055;51.498;11.960;2023-08-24T10:36:40;10.05;;;3.35;;
29728;SDS011;20055;51.498;11.960;2023-08-24T10:39:07;10.75;;;3.35;;
29728;SDS011;20055;51.498;11.960;2023-08-24T10:41:46;11.00;;;3.75;;
29728;SDS011;20055;51.498;11.960;2023-08-24T10:44:33;12.27;;;2.85;;
29728;SDS011;20055;51.498;11.960;2023-08-24T10:47:07;7.90;;;3.05;;
29728;SDS011;20055;51.498;11.960;2023-08-24T10:49:41;8.25;;;3.53;;
29728;SDS011;20055;51.498;11.960;2023-08-24T10:52:20;10.38;;;3.58;;
29728;SDS011;20055;51.498;11.960;2023-08-24T10:57:25;10.98;;;3.88;;
29728;SDS011;20055;51.498;11.960;2023-08-24T11:00:08;4.90;;;3.03;;
29728;SDS011;20055;51.498;11.960;2023-08-24T11:05:15;12.45;;;4.55;;
29728;SDS011;20055;51.498;11.960;2023-08-24T11:07:47;11.70;;;3.97;;
29728;SDS011;20055;51.498;11.960;2023-08-24T11:10:24;18.75;;;4.38;;
29728;SDS011;20055;51.498;11.960;2023-08-24T11:15:30;10.20;;;4.00;;
29728;SDS011;20055;51.498;11.960;2023-08-24T11:20:50;7.32;;;4.20;;
29728;SDS011;20055;51.498;11.960;2023-08-24T11:23:20;12.90;;;3.80;;
29728;SDS011;20055;51.498;11.960;2023-08-24T11:25:48;14.13;;;3.90;;
29728;SDS011;20055;51.498;11.960;2023-08-24T11:28:26;7.88;;;4.15;;
29728;SDS011;20055;51.498;11.960;2023-08-24T11:30:54;13.38;;;3.65;;
29728;SDS011;20055;51.498;11.960;2023-08-24T11:33:31;13.50;;;3.70;;
29728;SDS011;20055;51.498;11.960;2023-08-24T11:36:02;6.88;;;3.40;;
29728;SDS011;20055;51.498;11.960;2023-08-24T11:38:38;8.10;;;4.10;;
29728;SDS011;20055;51.498;11.960;2023-08-24T11:41:15;15.38;;;3.40;;
29728;SDS011;20055;51.498;11.960;2023-08-24T11:43:46;9.43;;;3.10;;
29728;SDS011;20055;51.498;11.960;2023-08-24T11:46:15;5.18;;;3.03;;
29728;SDS011;20055;51.498;11.960;2023-08-24T11:48:42;8.23;;;3.72;;
29728;SDS011;20055;51.498;11.960;2023-08-24T11:51:12;11.05;;;3.05;;
29728;SDS011;20055;51.498;11.960;2023-08-24T11:53:39;5.30;;;2.60;;
29728;SDS011;20055;51.498;11.960;2023-08-24T11:56:08;13.45;;;2.83;;
29728;SDS011;20055;51.498;11.960;2023-08-24T11:58:40;9.77;;;2.83;;
29728;SDS011;20055;51.498;11.960;2023-08-24T12:01:07;6.75;;;2.50;;
29728;SDS011;20055;51.498;11.960;2023-08-24T12:03:38;8.02;;;2.60;;
29728;SDS011;20055;51.498;11.960;2023-08-24T12:08:42;7.28;;;2.38;;
29728;SDS011;20055;51.498;11.960;2023-08-24T12:11:16;6.95;;;2.85;;
29728;SDS011;20055;51.498;11.960;2023-08-24T12:13:48;7.90;;;2.72;;
29728;SDS011;20055;51.498;11.960;2023-08-24T12:16:16;8.95;;;3.72;;
29728;SDS011;20055;51.498;11.960;2023-08-24T12:18:46;17.85;;;2.92;;
29728;SDS011;20055;51.498;11.960;2023-08-24T12:21:14;9.93;;;2.67;;
29728;SDS011;20055;51.498;11.960;2023-08-24T12:23:40;5.75;;;2.25;;
29728;SDS011;20055;51.498;11.960;2023-08-24T12:26:07;13.68;;;2.92;;
29728;SDS011;20055;51.498;11.960;2023-08-24T12:28:33;13.23;;;3.58;;
29728;SDS011;20055;51.498;11.960;2023-08-24T12:31:01;13.20;;;2.78;;
29728;SDS011;20055;51.498;11.960;2023-08-24T12:33:29;8.30;;;2.65;;
29728;SDS011;20055;51.498;11.960;2023-08-24T12:35:57;7.20;;;2.65;;
29728;SDS011;20055;51.498;11.960;2023-08-24T12:38:26;3.03;;;2.15;;
29728;SDS011;20055;51.498;11.960;2023-08-24T12:40:53;11.85;;;2.97;;
29728;SDS011;20055;51.498;11.960;2023-08-24T12:43:20;11.88;;;3.10;;
29728;SDS011;20055;51.498;11.960;2023-08-24T12:45:46;6.97;;;2.15;;
29728;SDS011;20055;51.498;11.960;2023-08-24T12:48:13;8.35;;;2.22;;
29728;SDS011;20055;51.498;11.960;2023-08-24T12:50:39;8.82;;;2.50;;
29728;SDS011;20055;51.498;11.960;2023-08-24T12:53:06;7.45;;;2.42;;
29728;SDS011;20055;51.498;11.960;2023-08-24T12:55:32;12.35;;;2.85;;
29728;SDS011;20055;51.498;11.960;2023-08-24T12:58:01;7.38;;;2.30;;
29728;SDS011;20055;51.498;11.960;2023-08-24T13:00:27;7.82;;;2.40;;
29728;SDS011;20055;51.498;11.960;2023-08-24T13:02:53;8.70;;;2.83;;
29728;SDS011;20055;51.498;11.960;2023-08-24T13:05:19;11.48;;;3.13;;
29728;SDS011;20055;51.498;11.960;2023-08-24T13:07:46;7.68;;;2.97;;
29728;SDS011;20055;51.498;11.960;2023-08-24T13:10:12;8.40;;;3.00;;
29728;SDS011;20055;51.498;11.960;2023-08-24T13:12:39;5.78;;;2.70;;
29728;SDS011;20055;51.498;11.960;2023-08-24T13:15:06;10.07;;;2.60;;
29728;SDS011;20055;51.498;11.960;2023-08-24T13:17:33;5.03;;;2.80;;
29728;SDS011;20055;51.498;11.960;2023-08-24T13:19:59;9.90;;;2.92;;
29728;SDS011;20055;51.498;11.960;2023-08-24T13:22:25;6.80;;;2.80;;
29728;SDS011;20055;51.498;11.960;2023-08-24T13:24:52;7.32;;;2.85;;
29728;SDS011;20055;51.498;11.960;2023-08-24T13:27:18;7.72;;;3.05;;
29728;SDS011;20055;51.498;11.960;2023-08-24T13:29:44;10.20;;;2.88;;
29728;SDS011;20055;51.498;11.960;2023-08-24T13:32:11;5.68;;;2.90;;
29728;SDS011;20055;51.498;11.960;2023-08-24T13:34:37;11.48;;;2.72;;
29728;SDS011;20055;51.498;11.960;2023-08-24T13:37:04;5.80;;;2.60;;
29728;SDS011;20055;51.498;11.960;2023-08-24T13:39:31;10.65;;;3.75;;
29728;SDS011;20055;51.498;11.960;2023-08-24T13:42:01;8.05;;;2.58;;
29728;SDS011;20055;51.498;11.960;2023-08-24T13:44:27;18.70;;;3.08;;
29728;SDS011;20055;51.498;11.960;2023-08-24T13:46:54;7.63;;;2.67;;
29728;SDS011;20055;51.498;11.960;2023-08-24T13:49:20;7.05;;;3.05;;
29728;SDS011;20055;51.498;11.960;2023-08-24T13:51:46;7.57;;;3.00;;
29728;SDS011;20055;51.498;11.960;2023-08-24T13:54:16;6.53;;;2.60;;
29728;SDS011;20055;51.498;11.960;2023-08-24T13:56:44;5.82;;;2.38;;
29728;SDS011;20055;51.498;11.960;2023-08-24T13:59:12;7.28;;;2.42;;
29728;SDS011;20055;51.498;11.960;2023-08-24T14:01:42;9.57;;;2.67;;
29728;SDS011;20055;51.498;11.960;2023-08-24T14:04:08;7.00;;;2.75;;
29728;SDS011;20055;51.498;11.960;2023-08-24T14:06:35;8.27;;;3.10;;
29728;SDS011;20055;51.498;11.960;2023-08-24T14:09:04;8.50;;;2.43;;
29728;SDS011;20055;51.498;11.960;2023-08-24T14:11:31;9.48;;;2.80;;
29728;SDS011;20055;51.498;11.960;2023-08-24T14:13:58;7.70;;;2.67;;
29728;SDS011;20055;51.498;11.960;2023-08-24T14:16:25;6.22;;;2.72;;
29728;SDS011;20055;51.498;11.960;2023-08-24T14:18:52;7.35;;;3.00;;
29728;SDS011;20055;51.498;11.960;2023-08-24T14:21:19;13.73;;;3.50;;
29728;SDS011;20055;51.498;11.960;2023-08-24T14:23:46;5.25;;;2.45;;
29728;SDS011;20055;51.498;11.960;2023-08-24T14:26:12;13.32;;;4.45;;
29728;SDS011;20055;51.498;11.960;2023-08-24T14:31:14;10.50;;;3.00;;
29728;SDS011;20055;51.498;11.960;2023-08-24T14:33:40;10.43;;;3.33;;
29728;SDS011;20055;51.498;11.960;2023-08-24T14:36:06;8.40;;;3.58;;
29728;SDS011;20055;51.498;11.960;2023-08-24T14:38:32;16.17;;;4.40;;
29728;SDS011;20055;51.498;11.960;2023-08-24T14:40:59;12.65;;;2.90;;
29728;SDS011;20055;51.498;11.960;2023-08-24T14:43:28;12.95;;;3.45;;
29728;SDS011;20055;51.498;11.960;2023-08-24T14:45:54;9.70;;;2.97;;
29728;SDS011;20055;51.498;11.960;2023-08-24T14:48:20;14.38;;;2.70;;
29728;SDS011;20055;51.498;11.960;2023-08-24T14:50:47;8.35;;;2.75;;
29728;SDS011;20055;51.498;11.960;2023-08-24T14:53:13;9.48;;;3.80;;